Time;durP1;ratioP1;P1;durP2;ratioP2;P2;SDS_P1;SDS_P2;PMS_P1;PMS_P2;Temp;Humidity;BMP_temperature;BMP_pressure;BME280_temperature;BME280_humidity;BME280_pressure;Samples;Min_cycle;Max_cycle;Signal;HPM_P1;HPM_P2
2023/01/18 00:00:36;;;;;;;2.35;1.25;;;;;;;;;;5091103;28;20427;-75
2023/01/18 00:03:02;;;;;;;2.45;1.50;;;;;;;;;;5090913;28;20042;-71
2023/01/18 00:05:27;;;;;;;1.90;1.00;;;;;;;;;;5090719;28;20381;-69
2023/01/18 00:07:53;;;;;;;2.33;1.10;;;;;;;;;;5090817;28;20027;-72
2023/01/18 00:10:19;;;;;;;3.28;1.55;;;;;;;;;;5091003;28;20031;-71
2023/01/18 00:12:44;;;;;;;3.10;1.65;;;;;;;;;;5090809;28;20039;-73
2023/01/18 00:15:10;;;;;;;2.63;1.30;;;;;;;;;;5090826;28;20024;-72
2023/01/18 00:17:46;;;;;;;3.53;1.30;;;;;;;;;;5090803;28;20028;-71
2023/01/18 00:20:15;;;;;;;2.10;1.27;;;;;;;;;;5090644;28;20467;-73
2023/01/18 00:22:41;;;;;;;1.23;0.50;;;;;;;;;;5090481;28;20034;-73
2023/01/18 00:25:09;;;;;;;0.35;0.32;;;;;;;;;;5090613;28;20028;-71
2023/01/18 00:27:37;;;;;;;1.10;0.65;;;;;;;;;;5090480;28;20046;-71
2023/01/18 00:30:04;;;;;;;0.90;0.50;;;;;;;;;;5090912;28;20504;-70
2023/01/18 00:32:30;;;;;;;0.60;0.40;;;;;;;;;;5090531;28;20047;-71
2023/01/18 00:34:55;;;;;;;2.15;0.63;;;;;;;;;;5090056;28;20483;-74
2023/01/18 00:37:23;;;;;;;1.15;0.40;;;;;;;;;;5090854;28;20034;-74
2023/01/18 00:39:49;;;;;;;0.80;0.35;;;;;;;;;;5091040;28;20587;-69
2023/01/18 00:44:58;;;;;;;1.85;0.43;;;;;;;;;;5090123;28;20111;-69
2023/01/18 00:47:24;;;;;;;0.55;0.32;;;;;;;;;;5090521;28;20114;-69
2023/01/18 00:49:49;;;;;;;0.38;0.30;;;;;;;;;;5089814;28;20028;-69
2023/01/18 00:52:14;;;;;;;0.60;0.30;;;;;;;;;;5090412;28;20459;-70
2023/01/18 00:54:40;;;;;;;0.20;0.20;;;;;;;;;;5090053;28;20089;-71
2023/01/18 00:57:05;;;;;;;1.10;0.38;;;;;;;;;;5090551;28;20020;-69
2023/01/18 00:59:30;;;;;;;0.25;0.20;;;;;;;;;;5090053;28;20027;-73
2023/01/18 01:01:56;;;;;;;0.60;0.17;;;;;;;;;;5090187;28;20054;-73
2023/01/18 01:07:05;;;;;;;0.10;0.10;;;;;;;;;;5090102;28;20039;-76
2023/01/18 01:09:31;;;;;;;0.13;0.10;;;;;;;;;;5089833;28;20390;-74
2023/01/18 01:26:12;;;;;;;0.15;0.10;;;;;;;;;;5082513;28;20093;-73
2023/01/18 01:28:45;;;;;;;0.47;0.20;;;;;;;;;;5089630;28;20016;-71
2023/01/18 01:31:14;;;;;;;0.68;0.13;;;;;;;;;;5089737;28;20032;-71
2023/01/18 01:33:40;;;;;;;0.00;0.00;;;;;;;;;;5089482;28;20040;-71
2023/01/18 01:36:09;;;;;;;2.75;0.88;;;;;;;;;;5089754;28;20039;-72
2023/01/18 01:38:34;;;;;;;0.45;0.20;;;;;;;;;;5089743;28;20032;-73
2023/01/18 01:41:04;;;;;;;0.28;0.10;;;;;;;;;;5089811;28;20089;-71
2023/01/18 01:43:47;;;;;;;0.88;0.40;;;;;;;;;;5089563;28;20059;-72
2023/01/18 01:46:45;;;;;;;0.90;0.30;;;;;;;;;;5089273;28;20077;-70
2023/01/18 01:49:15;;;;;;;1.60;0.13;;;;;;;;;;5070992;28;20111;-71
2023/01/18 01:51:43;;;;;;;0.60;0.20;;;;;;;;;;5089962;28;20365;-70
2023/01/18 01:54:17;;;;;;;1.15;0.50;;;;;;;;;;5089465;28;20063;-72
2023/01/18 01:56:43;;;;;;;1.20;0.20;;;;;;;;;;5089821;28;20379;-73
2023/01/18 01:59:09;;;;;;;0.47;0.30;;;;;;;;;;5089567;28;20028;-72
2023/01/18 02:01:36;;;;;;;0.90;0.40;;;;;;;;;;5089489;28;20046;-72
2023/01/18 02:04:02;;;;;;;0.57;0.25;;;;;;;;;;5088992;28;20028;-74
2023/01/18 02:06:33;;;;;;;0.60;0.10;;;;;;;;;;5089390;28;20081;-71
2023/01/18 02:09:02;;;;;;;0.55;0.30;;;;;;;;;;5089472;28;20556;-71
2023/01/18 02:11:28;;;;;;;0.85;0.30;;;;;;;;;;5089372;28;20052;-71
2023/01/18 02:13:56;;;;;;;0.93;0.32;;;;;;;;;;5089548;28;20063;-72
2023/01/18 02:16:45;;;;;;;0.38;0.20;;;;;;;;;;5072665;28;20115;-71
2023/01/18 02:19:16;;;;;;;0.22;0.20;;;;;;;;;;5092965;28;20043;-72
2023/01/18 02:21:57;;;;;;;0.77;0.30;;;;;;;;;;5093273;28;20031;-71
2023/01/18 02:24:50;;;;;;;0.43;0.22;;;;;;;;;;5092839;28;20102;-71
2023/01/18 02:27:21;;;;;;;0.20;0.10;;;;;;;;;;5093097;28;20023;-71
2023/01/18 02:30:32;;;;;;;0.35;0.10;;;;;;;;;;5092638;28;20099;-72
2023/01/18 02:33:27;;;;;;;0.10;0.00;;;;;;;;;;5073179;28;20047;-71
2023/01/18 02:35:55;;;;;;;0.63;0.15;;;;;;;;;;5092859;28;20024;-74
2023/01/18 02:38:43;;;;;;;0.25;0.13;;;;;;;;;;5093169;28;20123;-72
2023/01/18 02:46:29;;;;;;;0.10;0.10;;;;;;;;;;5092721;28;20070;-70
2023/01/18 02:47:03;;;;;;;0.10;0.10;;;;;;;;;;5092937;28;20141;-72
2023/01/18 02:49:31;;;;;;;1.02;0.50;;;;;;;;;;5073829;28;20024;-72
2023/01/18 02:52:05;;;;;;;1.98;0.60;;;;;;;;;;5074549;28;20032;-70
2023/01/18 02:54:33;;;;;;;1.10;0.20;;;;;;;;;;5092530;28;20031;-70
2023/01/18 02:57:00;;;;;;;0.03;0.00;;;;;;;;;;5092790;28;20060;-72
2023/01/18 02:59:33;;;;;;;0.38;0.20;;;;;;;;;;5092222;28;20491;-71
2023/01/18 03:02:15;;;;;;;0.73;0.30;;;;;;;;;;5092246;28;20047;-69
2023/01/18 03:04:52;;;;;;;0.20;0.20;;;;;;;;;;5091585;28;20020;-72
2023/01/18 03:07:23;;;;;;;1.00;0.63;;;;;;;;;;5092376;28;20025;-70
2023/01/18 03:09:49;;;;;;;;;;;;;;;;;;5092379;28;20540;-69
2023/01/18 03:12:24;;;;;;;0.75;0.40;;;;;;;;;;5092246;28;19916;-70
2023/01/18 03:15:23;;;;;;;0.20;0.20;;;;;;;;;;5092009;28;20024;-70
2023/01/18 03:17:56;;;;;;;0.28;0.20;;;;;;;;;;5092202;28;20522;-69
2023/01/18 03:20:35;;;;;;;0.50;0.20;;;;;;;;;;5091550;28;20039;-70
2023/01/18 03:23:37;;;;;;;0.20;0.13;;;;;;;;;;5092043;28;20028;-69
2023/01/18 03:26:07;;;;;;;0.30;0.10;;;;;;;;;;5091631;28;20024;-70
2023/01/18 03:34:54;;;;;;;0.52;0.30;;;;;;;;;;5091818;28;20051;-68
2023/01/18 03:37:27;;;;;;;0.73;0.30;;;;;;;;;;5073760;28;20040;-70
2023/01/18 03:39:57;;;;;;;0.10;0.10;;;;;;;;;;5091786;28;20057;-69
2023/01/18 03:42:30;;;;;;;0.40;0.20;;;;;;;;;;5091741;28;20491;-69
2023/01/18 03:45:08;;;;;;;0.38;0.10;;;;;;;;;;5091376;28;20440;-69
2023/01/18 03:47:33;;;;;;;0.63;0.10;;;;;;;;;;5091551;28;20429;-75
2023/01/18 03:49:59;;;;;;;0.10;0.10;;;;;;;;;;5091001;28;20093;-77
2023/01/18 03:52:36;;;;;;;0.03;0.00;;;;;;;;;;5091534;28;20092;-74
2023/01/18 03:55:24;;;;;;;0.03;0.00;;;;;;;;;;5091070;28;20036;-75
2023/01/18 03:58:03;;;;;;;0.25;0.10;;;;;;;;;;5091429;28;20028;-74
2023/01/18 04:00:30;;;;;;;0.00;0.00;;;;;;;;;;5072754;28;20047;-78
2023/01/18 04:02:55;;;;;;;0.20;0.17;;;;;;;;;;5091130;28;20114;-77
2023/01/18 04:05:21;;;;;;;0.13;0.10;;;;;;;;;;5090538;28;20107;-75
2023/01/18 04:07:47;;;;;;;0.28;0.10;;;;;;;;;;5091164;28;20024;-73
2023/01/18 04:10:12;;;;;;;0.05;0.00;;;;;;;;;;5090950;28;20031;-76
2023/01/18 04:12:38;;;;;;;0.10;0.00;;;;;;;;;;5091398;28;20425;-74
2023/01/18 04:15:04;;;;;;;0.20;0.00;;;;;;;;;;5091126;28;20089;-75
2023/01/18 04:17:29;;;;;;;0.00;0.00;;;;;;;;;;5090872;28;20036;-76
2023/01/18 04:19:55;;;;;;;0.13;0.00;;;;;;;;;;5090789;28;20032;-75
2023/01/18 04:22:20;;;;;;;0.03;0.00;;;;;;;;;;5090656;28;20103;-76
2023/01/18 04:24:46;;;;;;;0.10;0.00;;;;;;;;;;5090720;28;20226;-75
2023/01/18 04:27:11;;;;;;;0.00;0.00;;;;;;;;;;5090441;28;20073;-78
2023/01/18 04:29:36;;;;;;;0.08;0.08;;;;;;;;;;5090675;28;20036;-75
2023/01/18 04:32:02;;;;;;;3.15;0.93;;;;;;;;;;5090576;28;20028;-75
2023/01/18 04:34:28;;;;;;;1.95;0.55;;;;;;;;;;5090449;28;20137;-78
2023/01/18 04:36:53;;;;;;;0.40;0.20;;;;;;;;;;5072250;28;20630;-76
2023/01/18 04:39:19;;;;;;;0.30;0.10;;;;;;;;;;5090201;28;20114;-76
2023/01/18 04:41:45;;;;;;;0.22;0.10;;;;;;;;;;5090039;28;20020;-74
2023/01/18 04:44:10;;;;;;;0.50;0.13;;;;;;;;;;5090554;28;20118;-73
2023/01/18 04:46:38;;;;;;;0.57;0.20;;;;;;;;;;5089965;28;20020;-76
2023/01/18 04:49:05;;;;;;;0.30;0.17;;;;;;;;;;5090047;28;20034;-71
2023/01/18 04:51:31;;;;;;;0.15;0.10;;;;;;;;;;5090356;28;20023;-77
2023/01/18 04:53:58;;;;;;;0.20;0.10;;;;;;;;;;5090432;28;20027;-76
2023/01/18 04:56:23;;;;;;;0.10;0.10;;;;;;;;;;5090050;28;20032;-72
2023/01/18 04:58:51;;;;;;;0.10;0.10;;;;;;;;;;5090377;28;20028;-74
2023/01/18 05:01:17;;;;;;;0.30;0.10;;;;;;;;;;5089837;28;20043;-75
2023/01/18 05:03:42;;;;;;;0.25;0.10;;;;;;;;;;5089814;28;20464;-73
2023/01/18 05:06:11;;;;;;;0.80;0.20;;;;;;;;;;5089562;28;20020;-72
2023/01/18 05:08:39;;;;;;;0.20;0.10;;;;;;;;;;5090122;28;20213;-73
2023/01/18 05:11:17;;;;;;;0.10;0.10;;;;;;;;;;5090150;28;20028;-73
2023/01/18 05:13:43;;;;;;;0.20;0.20;;;;;;;;;;5090245;28;20082;-73
2023/01/18 05:16:14;;;;;;;0.20;0.20;;;;;;;;;;5089868;28;20107;-76
2023/01/18 05:18:39;;;;;;;;;;;;;;;;;;5090228;28;20081;-75
2023/01/18 05:21:05;;;;;;;0.10;0.10;;;;;;;;;;5089645;28;19916;-75
2023/01/18 05:23:30;;;;;;;0.28;0.17;;;;;;;;;;5089813;28;20111;-71
2023/01/18 05:25:57;;;;;;;0.35;0.15;;;;;;;;;;5089512;28;20024;-75
2023/01/18 05:28:24;;;;;;;0.98;0.28;;;;;;;;;;5089794;28;20020;-76
2023/01/18 05:30:50;;;;;;;0.32;0.30;;;;;;;;;;5089799;28;20027;-72
2023/01/18 05:33:20;;;;;;;0.20;0.20;;;;;;;;;;5090240;28;20036;-74
2023/01/18 05:35:52;;;;;;;0.30;0.25;;;;;;;;;;5089318;28;20103;-73
2023/01/18 05:38:18;;;;;;;0.28;0.20;;;;;;;;;;5089680;28;20387;-73
2023/01/18 05:40:46;;;;;;;0.40;0.20;;;;;;;;;;5089889;28;20081;-71
2023/01/18 05:43:12;;;;;;;0.50;0.30;;;;;;;;;;5089391;28;20035;-72
2023/01/18 05:45:37;;;;;;;1.45;0.40;;;;;;;;;;5089905;28;20380;-72
2023/01/18 05:48:03;;;;;;;0.63;0.40;;;;;;;;;;5089668;28;20496;-72
2023/01/18 05:50:29;;;;;;;1.30;0.40;;;;;;;;;;5089446;28;20464;-72
2023/01/18 05:52:57;;;;;;;0.77;0.47;;;;;;;;;;5093498;28;20549;-72
2023/01/18 05:55:22;;;;;;;1.55;0.30;;;;;;;;;;5093956;28;20099;-70
2023/01/18 05:57:48;;;;;;;0.68;0.32;;;;;;;;;;5093322;28;20107;-74
2023/01/18 06:00:13;;;;;;;1.65;0.30;;;;;;;;;;5093665;28;20052;-70
2023/01/18 06:02:39;;;;;;;1.40;0.45;;;;;;;;;;5093175;28;20028;-71
2023/01/18 06:05:04;;;;;;;1.33;0.30;;;;;;;;;;5093295;28;20040;-73
2023/01/18 06:07:30;;;;;;;1.08;0.30;;;;;;;;;;5093228;28;20024;-71
2023/01/18 06:09:55;;;;;;;0.43;0.30;;;;;;;;;;5093634;28;20045;-69
2023/01/18 06:12:21;;;;;;;0.65;0.35;;;;;;;;;;5093284;28;20024;-72
2023/01/18 06:14:46;;;;;;;1.50;0.77;;;;;;;;;;5093415;28;20134;-69
2023/01/18 06:17:11;;;;;;;1.00;0.60;;;;;;;;;;5092874;28;20055;-68
2023/01/18 06:19:37;;;;;;;1.10;0.60;;;;;;;;;;5093284;28;20091;-68
2023/01/18 06:22:02;;;;;;;1.08;0.38;;;;;;;;;;5093051;28;20062;-75
2023/01/18 06:24:27;;;;;;;0.75;0.32;;;;;;;;;;5093115;28;20026;-74
2023/01/18 06:26:53;;;;;;;1.20;0.47;;;;;;;;;;5092664;28;20020;-75
2023/01/18 06:29:18;;;;;;;1.92;0.70;;;;;;;;;;5093079;28;20024;-77
2023/01/18 06:31:43;;;;;;;3.03;0.55;;;;;;;;;;5092988;28;20023;-76
2023/01/18 06:34:09;;;;;;;2.08;0.55;;;;;;;;;;5092736;28;20024;-75
2023/01/18 06:36:38;;;;;;;2.33;0.52;;;;;;;;;;5074397;28;20422;-74
2023/01/18 06:39:04;;;;;;;1.35;0.73;;;;;;;;;;5092717;28;20548;-76
2023/01/18 06:41:29;;;;;;;1.13;0.50;;;;;;;;;;5092851;28;20028;-74
2023/01/18 06:43:55;;;;;;;1.13;0.70;;;;;;;;;;5092324;28;20066;-76
2023/01/18 06:46:20;;;;;;;0.90;0.60;;;;;;;;;;5092317;28;20024;-75
2023/01/18 06:48:46;;;;;;;0.90;0.50;;;;;;;;;;5092094;28;20024;-72
2023/01/18 06:51:11;;;;;;;1.35;0.82;;;;;;;;;;5092771;28;20499;-74
2023/01/18 06:53:38;;;;;;;1.40;0.70;;;;;;;;;;5074335;28;20055;-74
2023/01/18 06:56:04;;;;;;;2.55;0.73;;;;;;;;;;5092512;28;20031;-76
2023/01/18 06:58:31;;;;;;;1.45;0.80;;;;;;;;;;5092270;28;20039;-78
2023/01/18 07:00:58;;;;;;;2.42;0.90;;;;;;;;;;5092298;28;20051;-76
2023/01/18 07:03:25;;;;;;;1.35;0.80;;;;;;;;;;5090713;28;20032;-77
2023/01/18 07:05:59;;;;;;;0.60;0.50;;;;;;;;;;5092307;28;20073;-75
2023/01/18 07:08:29;;;;;;;1.55;0.70;;;;;;;;;;5092051;28;20030;-76
2023/01/18 07:10:55;;;;;;;1.42;0.60;;;;;;;;;;5074138;28;20055;-71
2023/01/18 07:13:20;;;;;;;1.52;0.70;;;;;;;;;;5091944;28;20364;-75
2023/01/18 07:15:55;;;;;;;2.35;0.70;;;;;;;;;;5092080;28;20028;-75
2023/01/18 07:18:22;;;;;;;2.63;0.70;;;;;;;;;;5091747;28;20024;-77
2023/01/18 07:20:56;;;;;;;1.55;0.70;;;;;;;;;;5092213;28;20020;-74
2023/01/18 07:23:21;;;;;;;1.60;0.70;;;;;;;;;;5091625;28;20024;-75
2023/01/18 07:25:47;;;;;;;1.27;0.73;;;;;;;;;;5091922;28;20040;-75
2023/01/18 07:28:12;;;;;;;1.33;0.80;;;;;;;;;;5091386;28;20384;-75
2023/01/18 07:30:37;;;;;;;1.55;0.80;;;;;;;;;;5091767;28;20032;-74
2023/01/18 07:33:03;;;;;;;1.77;0.80;;;;;;;;;;5091538;28;20028;-74
2023/01/18 07:35:28;;;;;;;1.10;0.70;;;;;;;;;;5091509;28;20115;-77
2023/01/18 07:37:53;;;;;;;2.05;0.73;;;;;;;;;;5091456;28;20635;-75
2023/01/18 07:40:20;;;;;;;3.53;1.00;;;;;;;;;;5091695;28;20115;-76
2023/01/18 07:42:46;;;;;;;1.35;0.90;;;;;;;;;;5091294;28;20035;-78
2023/01/18 07:45:12;;;;;;;1.63;0.70;;;;;;;;;;5091623;28;20495;-77
2023/01/18 07:47:42;;;;;;;3.30;1.10;;;;;;;;;;5091088;28;20024;-72
2023/01/18 07:50:08;;;;;;;2.72;0.90;;;;;;;;;;5091118;28;20511;-73
2023/01/18 07:52:34;;;;;;;3.45;1.00;;;;;;;;;;5091500;28;20055;-73
2023/01/18 07:54:59;;;;;;;1.92;0.90;;;;;;;;;;5091478;28;20059;-73
2023/01/18 07:57:25;;;;;;;2.75;1.20;;;;;;;;;;5090888;28;20028;-72
2023/01/18 07:59:50;;;;;;;1.88;0.90;;;;;;;;;;5090886;28;20028;-72
2023/01/18 08:02:16;;;;;;;2.13;1.10;;;;;;;;;;5091258;28;20035;-73
2023/01/18 08:04:42;;;;;;;2.10;1.20;;;;;;;;;;5090664;28;20028;-71
2023/01/18 08:07:08;;;;;;;2.55;1.30;;;;;;;;;;5090995;28;20080;-72
2023/01/18 08:09:33;;;;;;;2.22;1.40;;;;;;;;;;5091100;28;20622;-72
2023/01/18 08:12:00;;;;;;;2.33;1.27;;;;;;;;;;5091049;28;20031;-75
2023/01/18 08:14:25;;;;;;;1.83;1.38;;;;;;;;;;5090455;28;20066;-70
2023/01/18 08:16:50;;;;;;;4.50;1.60;;;;;;;;;;5072715;28;20455;-70
2023/01/18 08:19:16;;;;;;;4.00;1.70;;;;;;;;;;5090391;28;20455;-72
2023/01/18 08:21:42;;;;;;;3.00;1.58;;;;;;;;;;5090897;28;20028;-73
2023/01/18 08:24:07;;;;;;;6.30;1.52;;;;;;;;;;5090464;28;20028;-73
2023/01/18 08:26:33;;;;;;;6.50;2.00;;;;;;;;;;5090576;28;20057;-72
2023/01/18 08:28:59;;;;;;;4.30;1.70;;;;;;;;;;5090709;28;20048;-72
2023/01/18 08:31:24;;;;;;;3.10;1.70;;;;;;;;;;5090512;28;20111;-72
2023/01/18 08:33:51;;;;;;;4.15;1.80;;;;;;;;;;5090261;28;20028;-71
2023/01/18 08:36:22;;;;;;;4.60;1.60;;;;;;;;;;5090677;28;20531;-71
2023/01/18 08:38:49;;;;;;;;;;;;;;;;;;5090559;28;20380;-74
2023/01/18 08:41:14;;;;;;;4.90;1.90;;;;;;;;;;5090489;28;20015;-71
2023/01/18 08:43:40;;;;;;;3.75;1.80;;;;;;;;;;5090215;28;20115;-73
2023/01/18 08:46:05;;;;;;;3.22;1.60;;;;;;;;;;5072218;28;20089;-73
2023/01/18 08:48:30;;;;;;;3.13;1.92;;;;;;;;;;5089615;28;20472;-71
2023/01/18 08:51:03;;;;;;;2.97;1.70;;;;;;;;;;5090551;28;20036;-70
2023/01/18 08:53:30;;;;;;;4.20;2.10;;;;;;;;;;5090202;28;20491;-69
2023/01/18 08:55:56;;;;;;;3.67;1.98;;;;;;;;;;5090344;28;20040;-70
2023/01/18 08:58:21;;;;;;;3.70;2.10;;;;;;;;;;5071609;28;20108;-69
2023/01/18 09:00:49;;;;;;;3.88;2.05;;;;;;;;;;5089989;28;20071;-70
2023/01/18 09:03:18;;;;;;;4.68;2.33;;;;;;;;;;5089976;28;20031;-70
2023/01/18 09:05:44;;;;;;;3.25;1.77;;;;;;;;;;5090259;28;20469;-71
2023/01/18 09:08:10;;;;;;;5.40;1.90;;;;;;;;;;5089972;28;20046;-74
2023/01/18 09:10:36;;;;;;;3.35;1.70;;;;;;;;;;5089984;28;20395;-74
2023/01/18 09:13:01;;;;;;;2.78;1.50;;;;;;;;;;5090254;28;20026;-75
2023/01/18 09:15:28;;;;;;;2.22;1.20;;;;;;;;;;5071665;28;20111;-76
2023/01/18 09:17:54;;;;;;;2.10;1.30;;;;;;;;;;5089936;28;20024;-75
2023/01/18 09:20:19;;;;;;;3.22;1.27;;;;;;;;;;5089224;28;20027;-75
2023/01/18 09:22:46;;;;;;;2.42;1.60;;;;;;;;;;5089686;28;20059;-73
2023/01/18 09:25:12;;;;;;;3.60;2.08;;;;;;;;;;5089779;28;20089;-74
2023/01/18 09:27:37;;;;;;;2.60;1.65;;;;;;;;;;5089144;28;20020;-73
2023/01/18 09:30:05;;;;;;;2.35;1.38;;;;;;;;;;5089902;28;20039;-71
2023/01/18 09:32:30;;;;;;;2.85;1.48;;;;;;;;;;5089701;28;20110;-74
2023/01/18 09:34:56;;;;;;;2.08;1.45;;;;;;;;;;5089250;28;20157;-70
2023/01/18 09:37:21;;;;;;;2.72;1.50;;;;;;;;;;5089244;28;20054;-71
2023/01/18 09:39:47;;;;;;;2.35;1.40;;;;;;;;;;5089290;28;20028;-71
2023/01/18 09:42:21;;;;;;;2.85;1.33;;;;;;;;;;5089514;28;20029;-74
2023/01/18 09:44:54;;;;;;;2.63;1.20;;;;;;;;;;5071313;28;20039;-72
2023/01/18 09:47:23;;;;;;;3.25;1.55;;;;;;;;;;5089439;28;20020;-73
2023/01/18 09:49:57;;;;;;;3.45;1.65;;;;;;;;;;5088996;28;20024;-71
2023/01/18 09:52:31;;;;;;;3.53;1.50;;;;;;;;;;5089511;28;20032;-73
2023/01/18 09:55:34;;;;;;;2.88;1.63;;;;;;;;;;5089383;28;20047;-70
2023/01/18 09:58:33;;;;;;;2.22;1.45;;;;;;;;;;5089203;28;20035;-72
2023/01/18 10:01:08;;;;;;;5.15;1.48;;;;;;;;;;5089012;28;20052;-71
2023/01/18 10:04:21;;;;;;;2.33;1.40;;;;;;;;;;5088893;28;20491;-72
2023/01/18 10:07:06;;;;;;;3.58;1.20;;;;;;;;;;5006985;28;20033;-73
2023/01/18 10:09:40;;;;;;;2.22;1.40;;;;;;;;;;5006899;28;20038;-75
2023/01/18 10:12:32;;;;;;;2.67;1.40;;;;;;;;;;5043791;28;20032;-73
2023/01/18 10:15:20;;;;;;;3.05;1.63;;;;;;;;;;5089316;28;20093;-72
2023/01/18 10:17:48;;;;;;;4.40;1.65;;;;;;;;;;5072315;28;20031;-72
2023/01/18 10:20:33;;;;;;;3.83;1.48;;;;;;;;;;5088879;28;20024;-74
2023/01/18 10:23:08;;;;;;;5.75;1.70;;;;;;;;;;5089275;28;20036;-70
2023/01/18 10:25:52;;;;;;;2.47;1.33;;;;;;;;;;5089172;28;20024;-70
2023/01/18 10:28:25;;;;;;;2.42;1.40;;;;;;;;;;5088959;28;20025;-72
2023/01/18 10:31:02;;;;;;;5.30;1.90;;;;;;;;;;5088993;28;20036;-70
2023/01/18 10:33:32;;;;;;;2.13;1.10;;;;;;;;;;5089247;28;20078;-73
2023/01/18 10:36:11;;;;;;;5.10;1.60;;;;;;;;;;5089124;28;20451;-74
2023/01/18 10:38:39;;;;;;;2.53;1.00;;;;;;;;;;5090189;28;20492;-74
2023/01/18 10:41:15;;;;;;;3.13;1.30;;;;;;;;;;5092585;28;20024;-71
2023/01/18 10:43:41;;;;;;;2.97;1.50;;;;;;;;;;5092651;28;20115;-73
2023/01/18 10:46:15;;;;;;;3.58;0.95;;;;;;;;;;5092377;28;20118;-74
2023/01/18 10:48:51;;;;;;;3.22;1.23;;;;;;;;;;5092278;28;20438;-72
2023/01/18 10:51:31;;;;;;;3.20;1.20;;;;;;;;;;5092597;28;20028;-73
2023/01/18 10:53:57;;;;;;;3.67;0.93;;;;;;;;;;5092833;28;20042;-71
2023/01/18 10:56:25;;;;;;;2.53;0.90;;;;;;;;;;5092154;28;20438;-70
2023/01/18 10:58:51;;;;;;;1.77;0.95;;;;;;;;;;5092202;28;20527;-71
2023/01/18 11:01:23;;;;;;;2.72;1.00;;;;;;;;;;5092022;28;20124;-73
2023/01/18 11:03:53;;;;;;;2.00;0.85;;;;;;;;;;5091866;28;20067;-71
2023/01/18 11:06:20;;;;;;;1.65;1.00;;;;;;;;;;5092109;28;20055;-68
2023/01/18 11:08:47;;;;;;;1.50;1.00;;;;;;;;;;5092159;28;20020;-70
2023/01/18 11:14:40;;;;;;;3.20;1.27;;;;;;;;;;5092520;28;20043;-70
2023/01/18 11:17:11;;;;;;;2.53;1.00;;;;;;;;;;5088092;28;20038;-70
2023/01/18 11:19:38;;;;;;;2.83;1.10;;;;;;;;;;5091356;28;20024;-69
2023/01/18 11:22:10;;;;;;;3.63;1.13;;;;;;;;;;5091492;28;20069;-69
2023/01/18 11:24:36;;;;;;;2.42;1.00;;;;;;;;;;5092002;28;20024;-69
2023/01/18 11:27:15;;;;;;;2.03;0.93;;;;;;;;;;5091857;28;20396;-70
2023/01/18 11:29:44;;;;;;;1.65;0.90;;;;;;;;;;5091654;28;20158;-69
2023/01/18 11:32:23;;;;;;;1.55;0.80;;;;;;;;;;5091746;28;20024;-69
2023/01/18 11:34:56;;;;;;;1.52;0.85;;;;;;;;;;5091216;28;20028;-69
2023/01/18 11:37:36;;;;;;;2.08;0.80;;;;;;;;;;5091560;28;20092;-69
2023/01/18 11:40:25;;;;;;;1.80;0.90;;;;;;;;;;5091356;28;20449;-69
2023/01/18 11:42:57;;;;;;;3.40;0.90;;;;;;;;;;5091787;28;20028;-70
2023/01/18 11:45:29;;;;;;;3.47;0.90;;;;;;;;;;5091303;28;20031;-70
2023/01/18 11:47:55;;;;;;;2.42;1.13;;;;;;;;;;5091740;28;20028;-70
2023/01/18 11:50:39;;;;;;;1.98;1.05;;;;;;;;;;5090441;28;20072;-70
2023/01/18 11:53:30;;;;;;;7.50;1.20;;;;;;;;;;5073454;28;20460;-75
2023/01/18 11:56:31;;;;;;;3.63;1.58;;;;;;;;;;5091001;28;20027;-76
2023/01/18 11:58:57;;;;;;;2.58;1.10;;;;;;;;;;5085372;28;20135;-77
2023/01/18 12:01:54;;;;;;;1.90;1.05;;;;;;;;;;5090666;28;20055;-74
2023/01/18 12:04:54;;;;;;;2.22;1.10;;;;;;;;;;5076310;28;20306;-72
2023/01/18 12:07:31;;;;;;;2.00;1.10;;;;;;;;;;5090846;28;20487;-72
2023/01/18 12:09:59;;;;;;;1.13;0.90;;;;;;;;;;5090935;28;20032;-71
2023/01/18 12:12:43;;;;;;;1.45;0.95;;;;;;;;;;5072725;28;20024;-75
2023/01/18 12:15:27;;;;;;;2.25;1.08;;;;;;;;;;5072633;28;20032;-76
2023/01/18 12:18:17;;;;;;;3.35;1.08;;;;;;;;;;5091160;28;20067;-78
2023/01/18 12:21:07;;;;;;;2.22;1.20;;;;;;;;;;5090755;28;20035;-78
2023/01/18 12:23:58;;;;;;;2.17;1.02;;;;;;;;;;5072866;28;20035;-78
2023/01/18 12:26:45;;;;;;;2.03;1.10;;;;;;;;;;5090579;28;20024;-77
2023/01/18 12:29:29;;;;;;;3.10;1.00;;;;;;;;;;5090555;28;20461;-77
2023/01/18 12:32:22;;;;;;;2.05;1.00;;;;;;;;;;5090678;28;20091;-75
2023/01/18 12:35:17;;;;;;;2.13;1.00;;;;;;;;;;5090334;28;20032;-76
2023/01/18 12:37:54;;;;;;;3.97;0.90;;;;;;;;;;5072030;28;20024;-78
2023/01/18 12:40:31;;;;;;;1.65;0.90;;;;;;;;;;5090404;28;20102;-75
2023/01/18 12:43:15;;;;;;;1.30;0.82;;;;;;;;;;5090343;28;20028;-77
2023/01/18 12:45:46;;;;;;;2.35;0.82;;;;;;;;;;5090418;28;20074;-76
2023/01/18 12:48:23;;;;;;;1.88;1.00;;;;;;;;;;5090097;28;20020;-74
2023/01/18 12:50:49;;;;;;;1.67;0.93;;;;;;;;;;5090285;28;20039;-77
2023/01/18 12:53:22;;;;;;;2.35;1.05;;;;;;;;;;5090180;28;20093;-77
2023/01/18 12:55:52;;;;;;;2.38;0.95;;;;;;;;;;5090124;28;20111;-75
2023/01/18 12:58:21;;;;;;;1.38;0.80;;;;;;;;;;5089702;28;20043;-74
2023/01/18 13:01:03;;;;;;;1.98;0.80;;;;;;;;;;5089329;28;20048;-79
2023/01/18 13:03:38;;;;;;;1.58;0.80;;;;;;;;;;5089829;28;20024;-73
2023/01/18 13:06:03;;;;;;;4.20;0.90;;;;;;;;;;5090099;28;20030;-78
2023/01/18 13:08:54;;;;;;;2.22;0.90;;;;;;;;;;5090051;28;20020;-76
2023/01/18 13:11:23;;;;;;;3.63;0.98;;;;;;;;;;5089904;28;20559;-74
2023/01/18 13:13:58;;;;;;;2.47;1.20;;;;;;;;;;5089989;28;20036;-75
2023/01/18 13:16:38;;;;;;;1.67;0.90;;;;;;;;;;5089495;28;20028;-74
2023/01/18 13:19:16;;;;;;;1.80;0.80;;;;;;;;;;5089353;28;20077;-71
2023/01/18 13:21:55;;;;;;;1.85;0.90;;;;;;;;;;5089786;28;20024;-76
2023/01/18 13:24:38;;;;;;;1.00;0.70;;;;;;;;;;5089885;28;20055;-76
2023/01/18 13:27:09;;;;;;;2.85;0.90;;;;;;;;;;5089905;28;20638;-77
2023/01/18 13:29:35;;;;;;;2.65;0.70;;;;;;;;;;5089686;28;20039;-76
2023/01/18 13:32:01;;;;;;;1.55;0.70;;;;;;;;;;5089610;28;20055;-73
2023/01/18 13:34:35;;;;;;;5.80;0.90;;;;;;;;;;5089450;28;20103;-75
2023/01/18 13:37:03;;;;;;;1.48;0.70;;;;;;;;;;5089412;28;20069;-74
2023/01/18 13:39:31;;;;;;;1.70;0.80;;;;;;;;;;5089681;28;20016;-76
2023/01/18 13:42:02;;;;;;;2.15;0.70;;;;;;;;;;5089506;28;20036;-74
2023/01/18 13:44:43;;;;;;;1.52;0.55;;;;;;;;;;5089797;28;20032;-75
2023/01/18 13:47:44;;;;;;;1.23;0.70;;;;;;;;;;5089759;28;20059;-76
2023/01/18 13:50:30;;;;;;;1.45;0.70;;;;;;;;;;5089416;28;20538;-69
2023/01/18 13:53:19;;;;;;;3.60;0.70;;;;;;;;;;5089462;28;20383;-73
2023/01/18 13:56:24;;;;;;;1.98;0.82;;;;;;;;;;5079503;28;20496;-71
2023/01/18 13:59:25;;;;;;;0.82;0.60;;;;;;;;;;5089414;28;20106;-74
2023/01/18 14:01:51;;;;;;;2.88;0.60;;;;;;;;;;5006720;28;20042;-74
2023/01/18 14:04:22;;;;;;;2.17;0.82;;;;;;;;;;5018955;28;20118;-71
2023/01/18 14:06:50;;;;;;;1.42;0.60;;;;;;;;;;5089552;28;20110;-70
2023/01/18 14:09:18;;;;;;;2.15;0.82;;;;;;;;;;5089354;28;20020;-70
2023/01/18 14:11:55;;;;;;;2.85;1.20;;;;;;;;;;5089528;28;20032;-73
2023/01/18 14:14:24;;;;;;;2.45;0.85;;;;;;;;;;5093242;28;20020;-71
2023/01/18 14:17:11;;;;;;;2.92;0.80;;;;;;;;;;5093111;28;20115;-72
2023/01/18 14:19:59;;;;;;;3.08;0.80;;;;;;;;;;5092884;28;20024;-70
2023/01/18 14:22:28;;;;;;;1.42;0.70;;;;;;;;;;5093099;28;20024;-71
2023/01/18 14:24:59;;;;;;;0.93;0.60;;;;;;;;;;5093378;28;20111;-70
2023/01/18 14:27:31;;;;;;;1.85;0.60;;;;;;;;;;5093172;28;20060;-70
2023/01/18 14:30:31;;;;;;;1.42;0.68;;;;;;;;;;5092718;28;20035;-70
2023/01/18 14:33:10;;;;;;;1.02;0.70;;;;;;;;;;5088055;28;20107;-70
2023/01/18 14:35:36;;;;;;;1.23;0.60;;;;;;;;;;5092733;28;20036;-76
2023/01/18 14:38:13;;;;;;;1.65;0.80;;;;;;;;;;5092617;28;20132;-73
2023/01/18 14:40:42;;;;;;;3.45;0.80;;;;;;;;;;5092868;28;20039;-71
2023/01/18 14:43:24;;;;;;;2.95;0.90;;;;;;;;;;5092825;28;20036;-80
2023/01/18 14:45:56;;;;;;;2.03;0.80;;;;;;;;;;5092901;28;20024;-79
2023/01/18 14:48:23;;;;;;;2.58;0.80;;;;;;;;;;5092217;28;20055;-76
2023/01/18 14:50:54;;;;;;;2.10;0.68;;;;;;;;;;5092791;28;20023;-75
2023/01/18 14:53:21;;;;;;;1.50;0.60;;;;;;;;;;5092272;28;20034;-77
2023/01/18 14:56:25;;;;;;;1.70;0.80;;;;;;;;;;5092685;28;20024;-76
2023/01/18 14:58:51;;;;;;;1.95;0.88;;;;;;;;;;5092038;28;20384;-73
2023/01/18 15:01:34;;;;;;;4.68;1.10;;;;;;;;;;5092384;28;20052;-74
2023/01/18 15:04:03;;;;;;;1.85;0.80;;;;;;;;;;5091769;28;20073;-77
2023/01/18 15:06:43;;;;;;;3.47;0.70;;;;;;;;;;5092272;28;20127;-78
2023/01/18 15:09:11;;;;;;;7.25;0.77;;;;;;;;;;5092289;28;20028;-77
2023/01/18 15:11:38;;;;;;;1.85;0.70;;;;;;;;;;5073986;28;20028;-77
2023/01/18 15:14:22;;;;;;;4.20;0.82;;;;;;;;;;5091872;28;20133;-74
2023/01/18 15:16:52;;;;;;;1.10;0.60;;;;;;;;;;5092185;28;20032;-71
2023/01/18 15:19:23;;;;;;;2.33;0.70;;;;;;;;;;5091512;28;20028;-79
2023/01/18 15:21:49;;;;;;;3.17;1.02;;;;;;;;;;5074208;28;20552;-74
2023/01/18 15:24:20;;;;;;;1.75;0.70;;;;;;;;;;5091262;28;20059;-78
2023/01/18 15:26:51;;;;;;;;;;;;;;;;;;5092720;28;20606;-79
2023/01/18 15:29:29;;;;;;;1.90;0.40;;;;;;;;;;5091596;28;19919;-74
2023/01/18 15:32:02;;;;;;;0.68;0.43;;;;;;;;;;5073578;28;20039;-72
2023/01/18 15:34:35;;;;;;;1.73;0.70;;;;;;;;;;5091341;28;20066;-73
2023/01/18 15:37:08;;;;;;;1.92;0.50;;;;;;;;;;5091767;28;20031;-74
2023/01/18 15:39:34;;;;;;;2.03;0.70;;;;;;;;;;5091351;28;20391;-73
2023/01/18 15:42:09;;;;;;;1.55;0.73;;;;;;;;;;5091855;28;20032;-77